createdAt,value
2022-07-29T00:01:21.112Z,19.63
2022-07-29T00:03:49.874Z,20.01
2022-07-29T00:06:19.572Z,19.49
2022-07-29T00:08:47.743Z,19.65
2022-07-29T00:11:16.043Z,19.16
2022-07-29T00:13:47.717Z,19.36
2022-07-29T00:16:22.028Z,19.60
2022-07-29T00:18:50.347Z,19.81
2022-07-29T00:21:20.100Z,19.75
2022-07-29T00:23:48.375Z,19.84
2022-07-29T00:26:16.597Z,19.31
2022-07-29T00:28:45.057Z,19.38
2022-07-29T00:31:13.316Z,19.49
2022-07-29T00:33:41.688Z,19.44
2022-07-29T00:36:08.931Z,19.32
2022-07-29T00:38:38.655Z,19.40
2022-07-29T00:41:06.821Z,19.29
2022-07-29T00:43:35.110Z,19.33
2022-07-29T00:46:03.509Z,19.11
2022-07-29T00:48:31.804Z,18.92
2022-07-29T00:51:00.574Z,18.84
2022-07-29T00:53:29.131Z,19.01
2022-07-29T00:55:58.909Z,19.09
2022-07-29T00:58:28.815Z,19.10
2022-07-29T01:00:57.203Z,19.28
2022-07-29T01:03:25.561Z,19.44
2022-07-29T01:05:55.042Z,19.32
2022-07-29T01:08:23.791Z,19.12
2022-07-29T01:10:53.265Z,19.68
2022-07-29T01:13:24.611Z,20.05
2022-07-29T01:15:56.888Z,19.94
2022-07-29T01:18:30.813Z,19.40
2022-07-29T01:21:07.959Z,19.30
2022-07-29T01:23:57.205Z,19.24
2022-07-29T01:26:30.782Z,19.12
2022-07-29T01:29:08.453Z,19.40
2022-07-29T01:31:49.144Z,19.54
2022-07-29T01:34:32.147Z,19.75
2022-07-29T01:37:05.809Z,19.44
2022-07-29T01:39:36.095Z,18.95
2022-07-29T01:42:08.346Z,19.15
2022-07-29T01:44:40.189Z,19.04
2022-07-29T01:47:13.347Z,18.61
2022-07-29T01:49:44.940Z,19.24
2022-07-29T01:52:15.575Z,18.93
2022-07-29T01:54:50.105Z,18.55
2022-07-29T01:57:19.547Z,18.18
2022-07-29T01:59:50.911Z,18.65
2022-07-29T02:02:20.570Z,18.62
2022-07-29T02:04:49.683Z,18.42
2022-07-29T02:07:19.244Z,18.51
2022-07-29T02:09:48.377Z,18.39
2022-07-29T02:12:17.229Z,18.35
2022-07-29T02:14:47.089Z,18.36
2022-07-29T02:17:20.725Z,18.10
2022-07-29T02:19:50.049Z,18.46
2022-07-29T02:22:19.037Z,18.57
2022-07-29T02:24:48.567Z,19.93
2022-07-29T02:27:17.662Z,21.07
2022-07-29T02:29:47.878Z,21.40
2022-07-29T02:32:18.321Z,21.74
2022-07-29T02:34:47.190Z,20.91
2022-07-29T02:37:15.821Z,22.50
2022-07-29T02:39:45.993Z,22.79
2022-07-29T02:42:15.669Z,23.93
2022-07-29T02:44:44.050Z,24.88
2022-07-29T02:47:14.513Z,24.63
2022-07-29T02:49:52.313Z,25.15
2022-07-29T02:52:22.493Z,24.98
2022-07-29T02:54:54.272Z,25.68
2022-07-29T02:57:24.140Z,25.18
2022-07-29T02:59:53.904Z,26.30
2022-07-29T03:02:23.014Z,26.71
2022-07-29T03:04:53.899Z,25.66
2022-07-29T03:07:23.076Z,24.37
2022-07-29T03:09:52.277Z,24.03
2022-07-29T03:12:23.288Z,23.85
2022-07-29T03:14:51.873Z,24.36
2022-07-29T03:17:20.475Z,24.24
2022-07-29T03:19:48.953Z,24.40
2022-07-29T03:22:19.215Z,25.93
2022-07-29T03:24:47.765Z,25.76
2022-07-29T03:27:16.083Z,25.35
2022-07-29T03:29:49.890Z,25.61
2022-07-29T03:32:22.387Z,25.47
2022-07-29T03:34:52.337Z,25.10
2022-07-29T03:37:22.028Z,22.44
2022-07-29T03:39:52.027Z,22.90
2022-07-29T03:42:22.003Z,22.92
2022-07-29T03:44:51.222Z,21.69
2022-07-29T03:47:21.500Z,21.42
2022-07-29T03:49:52.905Z,20.85
2022-07-29T03:52:23.261Z,20.17
2022-07-29T03:54:51.605Z,21.04
2022-07-29T03:57:21.240Z,21.10
2022-07-29T03:59:51.351Z,21.10
2022-07-29T04:02:22.411Z,20.57
2022-07-29T04:04:52.730Z,20.82
2022-07-29T04:07:22.356Z,20.68
2022-07-29T04:09:50.905Z,20.68
2022-07-29T04:12:19.186Z,20.90
2022-07-29T04:14:47.441Z,21.30
2022-07-29T04:17:15.844Z,21.86
2022-07-29T04:19:44.148Z,21.84
2022-07-29T04:22:12.386Z,20.74
2022-07-29T04:24:44.437Z,21.24
2022-07-29T04:27:13.068Z,22.01
2022-07-29T04:29:56.958Z,21.79
2022-07-29T04:32:25.912Z,21.45
2022-07-29T04:34:54.125Z,21.46
2022-07-29T04:37:22.409Z,21.77
2022-07-29T04:39:54.167Z,21.23
2022-07-29T04:42:27.512Z,21.38
2022-07-29T04:44:56.141Z,22.06
2022-07-29T04:47:24.753Z,22.61
2022-07-29T04:49:53.121Z,22.37
2022-07-29T04:52:21.478Z,21.99
2022-07-29T04:54:49.777Z,21.75
2022-07-29T04:57:19.417Z,22.58
2022-07-29T04:59:47.728Z,22.63
2022-07-29T05:02:16.066Z,22.75
2022-07-29T05:04:44.348Z,22.85
2022-07-29T05:07:12.595Z,23.27
2022-07-29T05:09:41.758Z,22.79
2022-07-29T05:12:10.797Z,22.68
2022-07-29T05:14:40.404Z,22.92
2022-07-29T05:17:08.773Z,22.98
2022-07-29T05:19:39.713Z,22.52
2022-07-29T05:22:08.211Z,22.47
2022-07-29T05:24:36.481Z,22.08
2022-07-29T05:27:05.040Z,22.24
2022-07-29T05:29:44.795Z,22.34
2022-07-29T05:32:15.291Z,22.39
2022-07-29T05:34:50.086Z,22.37
2022-07-29T05:37:20.582Z,22.80
2022-07-29T05:39:56.842Z,23.13
2022-07-29T05:42:25.937Z,23.89
2022-07-29T05:44:54.275Z,23.56
2022-07-29T05:47:24.077Z,22.55
2022-07-29T05:49:52.762Z,22.82
2022-07-29T05:52:20.994Z,22.62
2022-07-29T05:54:49.435Z,23.02
2022-07-29T05:57:18.237Z,22.72
2022-07-29T05:59:46.549Z,22.25
2022-07-29T06:02:14.697Z,22.34
2022-07-29T06:04:44.417Z,22.28
2022-07-29T06:07:12.863Z,22.67
2022-07-29T06:09:41.144Z,22.62
2022-07-29T06:12:09.454Z,23.50
2022-07-29T06:14:39.064Z,23.16
2022-07-29T06:17:07.712Z,22.75
2022-07-29T06:19:36.397Z,23.49
2022-07-29T06:22:06.411Z,23.32
2022-07-29T06:24:34.765Z,23.56
2022-07-29T06:27:02.956Z,23.93
2022-07-29T06:29:31.860Z,23.47
2022-07-29T06:32:00.001Z,22.92
2022-07-29T06:34:28.466Z,22.83
2022-07-29T06:36:56.728Z,22.73
2022-07-29T06:39:26.446Z,22.86
2022-07-29T06:41:55.117Z,23.65
2022-07-29T06:44:27.014Z,24.18
2022-07-29T06:46:55.884Z,24.46
2022-07-29T06:49:25.500Z,23.93
2022-07-29T06:51:53.853Z,23.42
2022-07-29T06:54:22.784Z,24.30
2022-07-29T06:56:52.533Z,24.15
2022-07-29T06:59:28.361Z,22.92
2022-07-29T07:02:00.679Z,24.00
2022-07-29T07:04:28.918Z,23.80
2022-07-29T07:06:57.145Z,23.79
2022-07-29T07:09:25.373Z,24.17
2022-07-29T07:12:10.232Z,23.96
2022-07-29T07:14:38.539Z,23.65
2022-07-29T07:17:08.182Z,23.32
2022-07-29T07:19:36.737Z,23.37
2022-07-29T07:22:05.098Z,23.90
2022-07-29T07:24:36.470Z,24.23
2022-07-29T07:27:04.967Z,23.74
2022-07-29T07:29:34.573Z,24.31
2022-07-29T07:32:02.926Z,24.36
2022-07-29T07:34:31.660Z,24.57
2022-07-29T07:37:00.248Z,24.09
2022-07-29T07:39:28.607Z,23.37
2022-07-29T07:41:56.874Z,23.73
2022-07-29T07:44:25.065Z,24.27
2022-07-29T07:46:54.988Z,24.37
2022-07-29T07:49:23.313Z,24.30
2022-07-29T07:51:51.568Z,24.61
2022-07-29T07:54:20.803Z,25.01
2022-07-29T07:56:53.327Z,25.67
2022-07-29T07:59:21.890Z,25.11
2022-07-29T08:01:55.532Z,24.88
2022-07-29T08:04:28.699Z,24.27
2022-07-29T08:06:57.911Z,24.98
2022-07-29T08:09:30.694Z,25.87
2022-07-29T08:12:00.015Z,25.45
2022-07-29T08:14:28.253Z,24.94
2022-07-29T08:16:56.631Z,25.30
2022-07-29T08:19:26.380Z,24.53
2022-07-29T08:21:55.325Z,24.85
2022-07-29T08:24:41.617Z,24.41
2022-07-29T08:27:33.550Z,24.88
2022-07-29T08:29:58.554Z,25.79
2022-07-29T08:32:51.954Z,25.29
2022-07-29T08:35:16.515Z,25.83
2022-07-29T08:37:44.899Z,26.03
2022-07-29T08:40:13.509Z,25.77
2022-07-29T08:42:41.960Z,26.89
2022-07-29T08:45:10.554Z,25.38
2022-07-29T08:47:40.951Z,25.51
2022-07-29T08:50:10.131Z,25.57
2022-07-29T08:52:41.450Z,25.50
2022-07-29T08:55:10.709Z,25.80
2022-07-29T08:57:43.440Z,26.23
2022-07-29T09:00:20.288Z,25.97
2022-07-29T09:02:52.762Z,24.84
2022-07-29T09:05:21.555Z,25.85
2022-07-29T09:07:51.553Z,26.51
2022-07-29T09:10:20.194Z,26.97
2022-07-29T09:12:49.877Z,27.22
2022-07-29T09:15:18.121Z,26.03
2022-07-29T09:17:47.685Z,25.99
2022-07-29T09:20:16.831Z,25.53
2022-07-29T09:22:45.106Z,25.61
2022-07-29T09:25:15.385Z,25.92
2022-07-29T09:27:43.795Z,26.32
2022-07-29T09:30:13.371Z,25.46
2022-07-29T09:32:56.600Z,25.52
2022-07-29T09:35:25.816Z,25.19
2022-07-29T09:37:54.022Z,26.59
2022-07-29T09:40:25.203Z,27.24
2022-07-29T09:42:56.651Z,26.93
2022-07-29T09:45:29.646Z,26.22
2022-07-29T09:48:00.183Z,26.12
2022-07-29T09:50:39.052Z,25.68
2022-07-29T09:53:07.404Z,26.09
2022-07-29T09:55:47.931Z,26.31
2022-07-29T09:58:19.618Z,26.32
2022-07-29T10:00:48.606Z,26.24
2022-07-29T10:03:17.854Z,25.09
2022-07-29T10:05:46.773Z,25.67
2022-07-29T10:08:15.112Z,26.66
2022-07-29T10:10:45.141Z,25.94
2022-07-29T10:13:15.993Z,26.83
2022-07-29T10:15:46.920Z,26.31
2022-07-29T10:18:18.569Z,26.35
2022-07-29T10:20:47.037Z,26.97
2022-07-29T10:23:15.500Z,27.00
2022-07-29T10:25:46.507Z,28.24
2022-07-29T10:28:16.785Z,28.03
2022-07-29T10:30:46.849Z,27.90
2022-07-29T10:33:29.225Z,27.03
2022-07-29T10:36:04.403Z,26.92
2022-07-29T10:38:47.253Z,27.41
2022-07-29T10:41:32.367Z,27.23
2022-07-29T10:44:06.169Z,26.46
2022-07-29T10:46:37.720Z,24.70
2022-07-29T10:49:11.506Z,26.09
2022-07-29T10:52:00.735Z,26.13
2022-07-29T10:54:42.354Z,26.99
2022-07-29T10:57:21.738Z,26.75
2022-07-29T11:00:10.244Z,26.07
2022-07-29T11:02:53.154Z,26.55
2022-07-29T11:05:22.309Z,26.63
2022-07-29T11:08:11.553Z,26.01
2022-07-29T11:10:48.370Z,26.29
2022-07-29T11:13:34.121Z,26.80
2022-07-29T11:16:08.339Z,26.38
2022-07-29T11:18:36.863Z,26.84
2022-07-29T11:21:05.160Z,26.53
2022-07-29T11:23:36.805Z,26.41
2022-07-29T11:26:23.033Z,26.99
2022-07-29T11:28:56.928Z,27.44
2022-07-29T11:31:36.717Z,27.43
2022-07-29T11:34:21.856Z,27.81
2022-07-29T11:37:09.157Z,27.71
2022-07-29T11:39:39.087Z,26.61
2022-07-29T11:42:35.457Z,26.62
2022-07-29T11:45:40.404Z,26.20
2022-07-29T11:50:48.341Z,26.14
2022-07-29T11:53:17.317Z,26.92
2022-07-29T11:55:51.527Z,27.83
2022-07-29T11:58:24.814Z,27.16
2022-07-29T12:00:55.598Z,26.96
2022-07-29T12:03:35.420Z,28.06
2022-07-29T12:06:07.977Z,27.47
2022-07-29T12:07:03.328Z,26.75
2022-07-29T12:08:43.831Z,27.29
2022-07-29T12:11:17.987Z,26.87
2022-07-29T12:13:49.659Z,26.55
2022-07-29T12:16:25.471Z,27.07
2022-07-29T12:19:00.099Z,26.51
2022-07-29T12:21:29.302Z,26.02
2022-07-29T12:24:03.492Z,25.92
2022-07-29T12:26:35.698Z,26.46
2022-07-29T12:29:04.312Z,26.45
2022-07-29T12:31:43.199Z,25.75
2022-07-29T12:34:14.985Z,26.10
2022-07-29T12:36:43.863Z,27.07
2022-07-29T12:39:13.517Z,26.76
2022-07-29T12:41:42.069Z,27.22
2022-07-29T12:44:10.259Z,27.99
2022-07-29T12:46:38.847Z,28.21
2022-07-29T12:49:07.957Z,27.89
2022-07-29T12:51:38.900Z,27.88
2022-07-29T12:54:08.673Z,28.60
2022-07-29T12:56:44.941Z,28.52
2022-07-29T12:59:14.285Z,28.51
2022-07-29T13:01:42.520Z,28.14
2022-07-29T13:04:10.734Z,27.83
2022-07-29T13:06:41.570Z,28.43
2022-07-29T13:09:14.478Z,29.46
2022-07-29T13:11:48.216Z,28.46
2022-07-29T13:14:33.763Z,27.65
2022-07-29T13:17:03.076Z,27.68
2022-07-29T13:19:35.807Z,27.89
2022-07-29T13:22:05.759Z,28.09
2022-07-29T13:24:34.263Z,28.62
2022-07-29T13:27:05.624Z,28.38
2022-07-29T13:29:34.585Z,28.14
2022-07-29T13:32:02.798Z,28.55
2022-07-29T13:34:31.211Z,28.45
2022-07-29T13:36:59.442Z,28.59
2022-07-29T13:39:29.114Z,28.74
2022-07-29T13:41:57.874Z,28.67
2022-07-29T13:44:28.191Z,27.91
2022-07-29T13:46:56.873Z,28.95
2022-07-29T13:49:25.237Z,28.24
2022-07-29T13:51:53.666Z,27.10
2022-07-29T13:54:21.904Z,27.08
2022-07-29T13:56:52.038Z,26.95
2022-07-29T13:59:20.513Z,26.76
2022-07-29T14:01:49.087Z,27.54
2022-07-29T14:04:17.511Z,27.35
2022-07-29T14:06:45.768Z,27.51
2022-07-29T14:09:14.023Z,27.44
2022-07-29T14:11:42.309Z,27.31
2022-07-29T14:14:12.101Z,27.43
2022-07-29T14:16:43.722Z,27.96
2022-07-29T14:19:17.403Z,27.72
2022-07-29T14:21:45.761Z,27.15
2022-07-29T14:24:18.062Z,27.62
2022-07-29T14:26:50.237Z,26.94
2022-07-29T14:29:20.079Z,27.20
2022-07-29T14:31:48.599Z,26.86
2022-07-29T14:34:17.233Z,27.67
2022-07-29T14:36:45.662Z,28.19
2022-07-29T14:39:13.960Z,26.26
2022-07-29T14:41:42.317Z,26.57
2022-07-29T14:44:10.809Z,27.18
2022-07-29T14:46:40.735Z,27.63
2022-07-29T14:49:09.642Z,27.07
2022-07-29T14:51:38.423Z,26.99
2022-07-29T14:54:08.805Z,27.13
2022-07-29T14:56:37.774Z,27.14
2022-07-29T14:59:16.725Z,26.77
2022-07-29T15:01:46.860Z,27.01
2022-07-29T15:04:15.189Z,27.52
2022-07-29T15:06:44.172Z,27.30
2022-07-29T15:09:12.533Z,27.27
2022-07-29T15:11:40.892Z,26.61
2022-07-29T15:14:09.360Z,26.70
2022-07-29T15:16:43.474Z,26.37
2022-07-29T15:19:13.921Z,26.40
2022-07-29T15:21:48.680Z,26.30
2022-07-29T15:24:17.815Z,26.44
2022-07-29T15:26:46.363Z,26.75
2022-07-29T15:29:14.642Z,25.98
2022-07-29T15:31:43.038Z,26.01
2022-07-29T15:34:11.428Z,26.73
2022-07-29T15:36:56.561Z,26.99
2022-07-29T15:39:24.905Z,26.73
2022-07-29T15:41:53.112Z,25.77
2022-07-29T15:44:21.943Z,25.64
2022-07-29T15:47:05.838Z,25.81
2022-07-29T15:49:47.134Z,25.85
2022-07-29T15:52:25.066Z,25.75
2022-07-29T15:54:55.328Z,26.24
2022-07-29T15:57:23.766Z,26.37
2022-07-29T15:59:52.171Z,26.29
2022-07-29T16:02:20.750Z,25.97
2022-07-29T16:04:49.305Z,26.33
2022-07-29T16:07:19.394Z,26.67
2022-07-29T16:09:52.845Z,25.88
2022-07-29T16:12:21.569Z,25.64
2022-07-29T16:14:51.416Z,25.68
2022-07-29T16:17:20.091Z,25.85
2022-07-29T16:19:48.686Z,25.16
2022-07-29T16:22:17.680Z,24.79
2022-07-29T16:24:47.963Z,25.48
2022-07-29T16:27:16.402Z,24.11
2022-07-29T16:29:44.556Z,23.69
2022-07-29T16:32:13.434Z,23.37
2022-07-29T16:34:42.608Z,23.38
2022-07-29T16:37:11.678Z,23.28
2022-07-29T16:39:42.295Z,23.33
2022-07-29T16:42:30.994Z,22.96
2022-07-29T16:45:06.669Z,22.97
2022-07-29T16:47:35.887Z,22.95
2022-07-29T16:50:08.214Z,22.90
2022-07-29T16:52:38.286Z,23.01
2022-07-29T16:55:08.588Z,22.75
2022-07-29T16:57:40.035Z,22.71
2022-07-29T17:00:09.201Z,22.75
2022-07-29T17:02:38.948Z,22.59
2022-07-29T17:05:07.689Z,22.60
2022-07-29T17:07:36.193Z,22.49
2022-07-29T17:10:05.636Z,22.64
2022-07-29T17:12:33.950Z,22.62
2022-07-29T17:15:03.832Z,22.81
2022-07-29T17:17:38.583Z,23.12
2022-07-29T17:20:08.712Z,23.15
2022-07-29T17:22:37.116Z,23.21
2022-07-29T17:25:06.172Z,23.10
2022-07-29T17:27:34.616Z,22.84
2022-07-29T17:30:05.913Z,22.94
2022-07-29T17:32:38.909Z,22.86
2022-07-29T17:35:31.967Z,23.04
2022-07-29T17:38:00.332Z,23.04
2022-07-29T17:40:28.825Z,22.52
2022-07-29T17:42:57.113Z,21.92
2022-07-29T17:45:48.864Z,22.46
2022-07-29T17:48:19.754Z,22.35
2022-07-29T17:50:49.268Z,22.44
2022-07-29T17:53:18.549Z,22.41
2022-07-29T17:55:48.900Z,22.27
2022-07-29T17:58:17.287Z,22.36
2022-07-29T18:00:47.991Z,22.20
2022-07-29T18:03:17.763Z,22.13
2022-07-29T18:05:47.432Z,22.20
2022-07-29T18:08:20.660Z,21.87
2022-07-29T18:10:52.203Z,21.89
2022-07-29T18:13:20.919Z,21.86
2022-07-29T18:15:55.381Z,21.67
2022-07-29T18:18:26.468Z,21.65
2022-07-29T18:20:54.916Z,21.53
2022-07-29T18:23:23.376Z,21.09
2022-07-29T18:25:51.622Z,21.28
2022-07-29T18:28:19.968Z,21.23
2022-07-29T18:30:53.716Z,21.35
2022-07-29T18:33:22.806Z,20.71
2022-07-29T18:35:52.702Z,20.64
2022-07-29T18:38:39.276Z,20.51
2022-07-29T18:41:07.569Z,20.25
2022-07-29T18:43:36.297Z,20.67
2022-07-29T18:46:07.101Z,20.41
2022-07-29T18:48:35.634Z,20.28
2022-07-29T18:51:09.310Z,20.50
2022-07-29T18:53:38.346Z,20.78
2022-07-29T18:56:07.024Z,20.82
2022-07-29T18:58:37.254Z,20.95
2022-07-29T19:01:07.113Z,21.06
2022-07-29T19:03:35.391Z,21.05
2022-07-29T19:06:03.624Z,20.14
2022-07-29T19:08:33.381Z,20.59
2022-07-29T19:11:01.723Z,20.18
2022-07-29T19:13:30.060Z,20.35
2022-07-29T19:15:58.422Z,20.65
2022-07-29T19:18:28.197Z,20.69
2022-07-29T19:20:56.413Z,20.65
2022-07-29T19:23:25.619Z,20.86
2022-07-29T19:25:54.191Z,20.80
2022-07-29T19:28:22.725Z,20.53
2022-07-29T19:30:51.237Z,20.53
2022-07-29T19:33:21.020Z,20.15
2022-07-29T19:35:54.765Z,19.74
2022-07-29T19:38:23.862Z,19.64
2022-07-29T19:40:52.188Z,19.82
2022-07-29T19:43:51.239Z,19.84
2022-07-29T19:46:08.933Z,19.28
2022-07-29T19:48:37.188Z,19.41
2022-07-29T19:51:06.868Z,19.75
2022-07-29T19:53:35.328Z,19.18
2022-07-29T19:56:03.793Z,19.31
2022-07-29T19:58:35.717Z,19.58
2022-07-29T20:01:10.697Z,19.39
2022-07-29T20:03:40.294Z,19.20
2022-07-29T20:06:10.300Z,19.35
2022-07-29T20:08:41.351Z,19.30
2022-07-29T20:11:09.937Z,18.96
2022-07-29T20:13:38.200Z,19.73
2022-07-29T20:16:08.449Z,19.49
2022-07-29T20:18:36.748Z,19.64
2022-07-29T20:21:05.159Z,19.98
2022-07-29T20:23:35.054Z,19.33
2022-07-29T20:26:08.747Z,19.17
2022-07-29T20:28:40.455Z,18.94
2022-07-29T20:31:09.273Z,19.13
2022-07-29T20:33:37.732Z,19.52
2022-07-29T20:36:06.435Z,19.80
2022-07-29T20:38:36.065Z,19.71
2022-07-29T20:41:05.032Z,19.94
2022-07-29T20:43:35.937Z,19.67
2022-07-29T20:46:07.253Z,19.63
2022-07-29T20:48:35.513Z,19.58
2022-07-29T20:51:03.753Z,19.48
2022-07-29T20:53:32.933Z,19.49
2022-07-29T20:56:02.698Z,19.47
2022-07-29T20:58:32.452Z,19.29
2022-07-29T21:01:01.099Z,19.13
2022-07-29T21:03:29.503Z,19.16
2022-07-29T21:05:57.825Z,19.17
2022-07-29T21:08:26.223Z,19.38
2022-07-29T21:10:54.539Z,18.94
2022-07-29T21:13:25.720Z,19.14
2022-07-29T21:15:58.606Z,18.79
2022-07-29T21:18:32.428Z,18.58
2022-07-29T21:21:01.891Z,18.05
2022-07-29T21:23:30.264Z,18.50
2022-07-29T21:25:58.701Z,18.51
2022-07-29T21:28:27.283Z,18.35
2022-07-29T21:30:55.801Z,18.45
2022-07-29T21:33:24.343Z,18.87
2022-07-29T21:36:15.384Z,18.58
2022-07-29T21:38:41.043Z,18.72
2022-07-29T21:41:10.917Z,18.55
2022-07-29T21:43:42.388Z,18.26
2022-07-29T21:46:10.813Z,18.39
2022-07-29T21:48:43.821Z,18.69
2022-07-29T21:51:12.850Z,18.40
2022-07-29T21:53:41.623Z,18.49
2022-07-29T21:56:14.464Z,18.61
2022-07-29T21:58:44.923Z,18.35
2022-07-29T22:01:13.119Z,18.38
2022-07-29T22:03:41.370Z,18.39
2022-07-29T22:06:11.283Z,18.17
2022-07-29T22:08:48.075Z,17.96
2022-07-29T22:11:16.548Z,18.09
2022-07-29T22:13:46.194Z,18.04
2022-07-29T22:16:15.195Z,18.20
2022-07-29T22:18:47.026Z,18.14
2022-07-29T22:21:15.409Z,18.14
2022-07-29T22:23:43.715Z,18.31
2022-07-29T22:26:12.113Z,18.42
2022-07-29T22:28:40.575Z,18.20
2022-07-29T22:31:10.455Z,17.97
2022-07-29T22:33:43.106Z,18.14
2022-07-29T22:36:11.717Z,18.01
2022-07-29T22:38:39.882Z,17.93
2022-07-29T22:41:08.182Z,17.85
2022-07-29T22:43:36.422Z,17.71
2022-07-29T22:46:04.795Z,17.98
2022-07-29T22:48:34.494Z,17.81
2022-07-29T22:51:02.735Z,17.94
2022-07-29T22:53:30.847Z,18.00
2022-07-29T22:55:59.177Z,17.96
2022-07-29T22:58:27.639Z,18.14
2022-07-29T23:00:55.919Z,18.28
2022-07-29T23:03:24.261Z,18.14
2022-07-29T23:05:53.976Z,17.90
2022-07-29T23:08:22.177Z,17.30
2022-07-29T23:10:50.394Z,17.61
2022-07-29T23:13:18.848Z,17.43
2022-07-29T23:15:47.102Z,17.27
2022-07-29T23:18:15.427Z,17.41
2022-07-29T23:20:43.963Z,17.45
2022-07-29T23:23:13.903Z,17.33
2022-07-29T23:25:42.428Z,17.00
2022-07-29T23:28:11.636Z,16.91
2022-07-29T23:30:41.951Z,16.67
2022-07-29T23:33:10.346Z,16.30
2022-07-29T23:35:38.599Z,16.21
2022-07-29T23:38:06.995Z,16.53
2022-07-29T23:40:36.696Z,16.10
2022-07-29T23:43:08.761Z,16.18
2022-07-29T23:45:42.838Z,16.69
2022-07-29T23:48:14.667Z,16.97
2022-07-29T23:50:42.889Z,16.58
2022-07-29T23:53:12.204Z,16.08
2022-07-29T23:55:41.822Z,16.57
2022-07-29T23:58:10.144Z,16.53
